createdAt,value
2022-09-13T00:01:59.339Z,14.15
2022-09-13T00:07:01.121Z,14.98
2022-09-13T00:12:03.218Z,14.88
2022-09-13T00:17:04.971Z,13.90
2022-09-13T00:22:06.849Z,14.63
2022-09-13T00:27:08.667Z,18.50
2022-09-13T00:32:10.516Z,26.98
2022-09-13T00:37:12.667Z,20.73
2022-09-13T00:42:14.975Z,18.50
2022-09-13T00:47:26.620Z,15.57
2022-09-13T00:52:32.700Z,15.55
2022-09-13T00:57:36.734Z,15.93
2022-09-13T01:02:46.676Z,13.80
2022-09-13T01:07:48.609Z,15.18
2022-09-13T01:13:01.995Z,14.32
2022-09-13T01:18:05.349Z,17.08
2022-09-13T01:23:16.441Z,15.70
2022-09-13T01:28:37.989Z,14.55
2022-09-13T01:33:58.442Z,14.48
2022-09-13T01:39:08.427Z,14.35
2022-09-13T01:44:43.950Z,13.43
2022-09-13T01:50:17.967Z,14.48
2022-09-13T01:55:23.425Z,13.10
2022-09-13T02:00:25.199Z,13.50
2022-09-13T02:05:56.860Z,12.02
2022-09-13T02:11:06.271Z,13.57
2022-09-13T02:16:26.745Z,13.77
2022-09-13T02:21:38.473Z,12.90
2022-09-13T02:26:41.904Z,13.18
2022-09-13T02:31:57.329Z,14.07
2022-09-13T02:37:01.583Z,12.73
2022-09-13T02:42:17.600Z,15.85
2022-09-13T02:47:31.345Z,13.90
2022-09-13T02:52:42.068Z,14.48
2022-09-13T02:57:58.956Z,12.85
2022-09-13T03:03:04.618Z,13.25
2022-09-13T03:08:10.839Z,13.75
2022-09-13T03:13:33.318Z,13.75
2022-09-13T03:18:55.277Z,13.75
2022-09-13T03:24:25.375Z,14.55
2022-09-13T03:29:36.943Z,13.82
2022-09-13T03:34:48.102Z,14.20
2022-09-13T03:40:09.120Z,13.35
2022-09-13T03:45:12.782Z,13.98
2022-09-13T03:50:21.305Z,17.52
2022-09-13T03:55:23.809Z,14.65
2022-09-13T04:00:25.644Z,14.90
2022-09-13T04:05:27.367Z,14.00
2022-09-13T04:10:31.796Z,13.52
2022-09-13T04:15:33.564Z,13.63
2022-09-13T04:20:36.035Z,14.95
2022-09-13T04:25:40.885Z,13.20
2022-09-13T04:30:45.327Z,17.40
2022-09-13T04:35:47.272Z,13.25
2022-09-13T04:40:53.753Z,14.40
2022-09-13T04:46:01.143Z,13.73
2022-09-13T04:51:06.352Z,15.10
2022-09-13T04:56:09.630Z,14.88
2022-09-13T05:01:11.974Z,14.95
2022-09-13T05:06:19.596Z,14.82
2022-09-13T05:11:23.587Z,19.67
2022-09-13T05:16:27.566Z,15.48
2022-09-13T05:21:31.097Z,19.20
2022-09-13T05:26:32.945Z,15.95
2022-09-13T05:31:38.344Z,17.65
2022-09-13T05:36:41.460Z,17.77
2022-09-13T05:41:44.065Z,18.75
2022-09-13T05:46:49.367Z,26.10
2022-09-13T05:51:51.113Z,23.10
2022-09-13T05:56:54.341Z,26.10
2022-09-13T06:01:56.138Z,27.58
2022-09-13T06:06:57.902Z,21.67
2022-09-13T06:11:59.696Z,26.55
2022-09-13T06:17:01.478Z,16.25
2022-09-13T06:22:03.251Z,14.45
2022-09-13T06:27:05.924Z,11.60
2022-09-13T06:32:07.646Z,12.98
2022-09-13T06:37:09.367Z,11.70
2022-09-13T06:42:11.056Z,11.07
2022-09-13T06:47:15.026Z,11.60
2022-09-13T06:52:16.830Z,12.07
2022-09-13T06:57:18.611Z,10.60
2022-09-13T07:02:20.631Z,11.60
2022-09-13T07:07:22.579Z,11.80
2022-09-13T07:12:24.263Z,12.18
2022-09-13T07:17:31.271Z,11.77
2022-09-13T07:22:33.394Z,11.85
2022-09-13T07:27:35.115Z,10.70
2022-09-13T07:32:36.849Z,10.93
2022-09-13T07:37:38.555Z,11.85
2022-09-13T07:42:40.314Z,11.88
2022-09-13T07:47:42.710Z,11.70
2022-09-13T07:52:44.552Z,10.90
2022-09-13T07:57:46.270Z,10.45
2022-09-13T08:02:48.068Z,11.07
2022-09-13T08:07:49.825Z,11.85
2022-09-13T08:12:51.573Z,11.35
2022-09-13T08:17:56.105Z,11.57
2022-09-13T08:22:57.871Z,11.88
2022-09-13T08:27:59.769Z,12.05
2022-09-13T08:33:02.694Z,12.10
2022-09-13T08:38:05.465Z,11.13
2022-09-13T08:43:15.549Z,11.38
2022-09-13T08:48:23.123Z,11.95
2022-09-13T08:53:32.680Z,13.05
2022-09-13T08:58:46.834Z,12.90
2022-09-13T09:04:26.845Z,13.75
2022-09-13T09:09:32.504Z,12.13
2022-09-13T09:14:39.259Z,12.63
2022-09-13T09:19:46.560Z,11.32
2022-09-13T09:24:55.114Z,11.48
2022-09-13T09:30:00.673Z,10.25
2022-09-13T09:35:20.649Z,11.90
2022-09-13T09:40:22.443Z,10.55
2022-09-13T09:45:24.218Z,11.05
2022-09-13T09:50:31.090Z,12.15
2022-09-13T09:55:33.635Z,11.77
2022-09-13T10:00:37.807Z,11.57
2022-09-13T10:05:39.705Z,12.02
2022-09-13T10:10:44.499Z,12.45
2022-09-13T10:16:02.859Z,12.32
2022-09-13T10:21:24.875Z,12.95
2022-09-13T10:26:26.887Z,12.20
2022-09-13T10:31:34.811Z,13.00
2022-09-13T10:36:53.485Z,14.10
2022-09-13T10:42:09.562Z,13.65
2022-09-13T10:47:20.333Z,14.48
2022-09-13T10:52:41.974Z,13.43
2022-09-13T10:57:44.387Z,13.10
2022-09-13T11:03:17.105Z,12.82
2022-09-13T11:08:40.715Z,12.40
2022-09-13T11:14:22.606Z,12.43
2022-09-13T11:19:58.662Z,11.43
2022-09-13T11:25:24.194Z,12.40
2022-09-13T11:30:31.258Z,12.07
2022-09-13T11:35:48.236Z,12.27
2022-09-13T11:41:22.932Z,11.52
2022-09-13T11:46:52.849Z,12.52
2022-09-13T11:52:20.626Z,12.35
2022-09-13T11:57:40.756Z,12.50
2022-09-13T12:02:49.311Z,12.80
2022-09-13T12:08:00.183Z,12.52
2022-09-13T12:13:03.736Z,12.85
2022-09-13T12:18:20.341Z,12.52
2022-09-13T12:23:32.658Z,13.25
2022-09-13T12:28:56.342Z,12.23
2022-09-13T12:33:59.797Z,12.65
2022-09-13T12:39:07.914Z,13.00
2022-09-13T12:44:25.528Z,13.20
2022-09-13T12:50:01.734Z,14.13
2022-09-13T12:55:47.659Z,13.75
2022-09-13T13:01:17.355Z,13.27
2022-09-13T13:06:29.166Z,13.35
2022-09-13T13:11:44.143Z,13.10
2022-09-13T13:16:48.395Z,13.95
2022-09-13T13:21:50.295Z,13.20
2022-09-13T13:26:56.611Z,13.13
2022-09-13T13:32:01.201Z,13.73
2022-09-13T13:37:22.355Z,13.68
2022-09-13T13:42:31.705Z,13.02
2022-09-13T13:47:33.967Z,12.25
2022-09-13T13:52:51.197Z,11.70
2022-09-13T13:58:10.284Z,12.38
2022-09-13T14:03:26.837Z,13.15
2022-09-13T14:08:37.909Z,12.73
2022-09-13T14:13:44.643Z,12.75
2022-09-13T14:19:14.638Z,12.50
2022-09-13T14:24:24.765Z,12.32
2022-09-13T14:29:27.488Z,13.10
2022-09-13T14:34:35.870Z,12.40
2022-09-13T14:39:37.619Z,13.18
2022-09-13T14:44:44.621Z,13.30
2022-09-13T14:49:54.351Z,12.95
2022-09-13T14:55:09.880Z,12.25
2022-09-13T15:00:14.633Z,13.32
2022-09-13T15:05:19.183Z,13.02
2022-09-13T15:10:24.095Z,12.70
2022-09-13T15:15:33.420Z,13.40
2022-09-13T15:20:59.036Z,13.35
2022-09-13T15:26:19.050Z,13.48
2022-09-13T15:31:25.420Z,13.75
2022-09-13T15:36:29.893Z,13.40
2022-09-13T15:41:34.067Z,13.75
2022-09-13T15:46:52.349Z,13.63
2022-09-13T15:51:56.497Z,13.40
2022-09-13T15:56:58.799Z,12.40
2022-09-13T16:02:17.471Z,13.90
2022-09-13T16:07:19.904Z,13.38
2022-09-13T16:12:24.623Z,12.93
2022-09-13T16:17:27.845Z,12.82
2022-09-13T16:22:29.621Z,13.18
2022-09-13T16:27:34.154Z,13.55
2022-09-13T16:32:36.031Z,12.32
2022-09-13T16:37:40.277Z,12.98
2022-09-13T16:42:42.047Z,12.50
2022-09-13T16:47:43.987Z,12.57
2022-09-13T16:52:45.749Z,12.55
2022-09-13T16:57:50.239Z,13.15
2022-09-13T17:02:52.067Z,12.65
2022-09-13T17:07:53.858Z,12.87
2022-09-13T17:12:56.318Z,11.68
2022-09-13T17:17:59.164Z,11.73
2022-09-13T17:23:01.262Z,11.82
2022-09-13T17:28:03.391Z,12.00
2022-09-13T17:33:06.001Z,12.48
2022-09-13T17:38:07.824Z,11.10
2022-09-13T17:43:09.707Z,10.43
2022-09-13T17:48:11.482Z,11.23
2022-09-13T17:53:13.257Z,11.90
2022-09-13T17:58:17.288Z,11.88
2022-09-13T18:03:19.216Z,10.77
2022-09-13T18:08:20.986Z,10.35
2022-09-13T18:13:22.713Z,10.52
2022-09-13T18:18:24.466Z,10.30
2022-09-13T18:23:28.287Z,10.82
2022-09-13T18:28:31.060Z,11.07
2022-09-13T18:33:34.269Z,12.77
2022-09-13T18:38:45.034Z,12.20
2022-09-13T18:43:52.914Z,10.50
2022-09-13T18:48:57.795Z,10.73
2022-09-13T18:54:00.965Z,11.25
2022-09-13T18:59:06.864Z,14.32
2022-09-13T19:04:17.832Z,14.10
2022-09-13T19:09:21.066Z,14.07
2022-09-13T19:14:26.059Z,12.90
2022-09-13T19:19:27.911Z,12.32
2022-09-13T19:24:29.817Z,11.32
2022-09-13T19:29:31.770Z,10.40
2022-09-13T19:34:33.496Z,10.82
2022-09-13T19:39:35.276Z,9.52
2022-09-13T19:44:37.518Z,11.48
2022-09-13T19:49:40.581Z,9.77
2022-09-13T19:54:42.376Z,10.02
2022-09-13T19:59:44.865Z,10.73
2022-09-13T20:04:48.535Z,10.93
2022-09-13T20:09:50.981Z,10.48
2022-09-13T20:14:52.839Z,10.50
2022-09-13T20:19:54.947Z,12.30
2022-09-13T20:24:57.756Z,13.70
2022-09-13T20:30:00.205Z,11.65
2022-09-13T20:35:02.037Z,14.40
2022-09-13T20:40:04.935Z,11.80
2022-09-13T20:45:07.525Z,11.60
2022-09-13T20:50:10.045Z,12.30
2022-09-13T20:55:12.223Z,16.05
2022-09-13T21:00:14.568Z,15.93
2022-09-13T21:05:16.374Z,16.83
2022-09-13T21:10:18.727Z,15.80
2022-09-13T21:15:20.629Z,15.32
2022-09-13T21:20:22.586Z,14.85
2022-09-13T21:25:25.709Z,14.70
2022-09-13T21:30:27.496Z,14.85
2022-09-13T21:35:29.216Z,16.17
2022-09-13T21:40:31.016Z,13.27
2022-09-13T21:45:32.765Z,15.48
2022-09-13T21:50:34.488Z,13.75
2022-09-13T21:55:39.932Z,13.45
2022-09-13T22:00:41.683Z,13.85
2022-09-13T22:05:43.403Z,12.93
2022-09-13T22:10:45.131Z,13.50
2022-09-13T22:15:46.865Z,11.98
2022-09-13T22:20:48.593Z,11.77
2022-09-13T22:25:52.127Z,10.75
2022-09-13T22:30:53.759Z,11.32
2022-09-13T22:36:03.607Z,9.93
2022-09-13T22:41:11.487Z,10.90
2022-09-13T22:46:20.046Z,11.27
2022-09-13T22:51:22.732Z,10.45
2022-09-13T22:56:30.251Z,10.70
2022-09-13T23:01:31.984Z,11.95
2022-09-13T23:06:34.707Z,10.80
2022-09-13T23:11:38.326Z,10.82
2022-09-13T23:16:43.306Z,10.38
2022-09-13T23:21:45.598Z,10.32
2022-09-13T23:26:47.795Z,9.88
2022-09-13T23:31:50.627Z,11.40
2022-09-13T23:36:52.517Z,10.20
2022-09-13T23:41:54.083Z,10.70
2022-09-13T23:46:55.810Z,9.93
2022-09-13T23:51:57.377Z,10.02
2022-09-13T23:56:58.977Z,11.02
